createdAt,value
2023-03-30T00:04:10.524Z,100
2023-03-30T00:09:11.984Z,100
2023-03-30T00:14:13.380Z,100
2023-03-30T00:19:14.976Z,100
2023-03-30T00:24:16.446Z,100
2023-03-30T00:29:17.865Z,100
2023-03-30T00:34:19.113Z,100
2023-03-30T00:39:20.471Z,100
2023-03-30T00:44:22.289Z,100
2023-03-30T00:49:23.746Z,100
2023-03-30T00:54:24.989Z,100
2023-03-30T00:59:26.465Z,100
2023-03-30T01:04:28.127Z,100
2023-03-30T01:09:29.409Z,100
2023-03-30T01:14:30.777Z,100
2023-03-30T01:19:32.815Z,100
2023-03-30T01:24:35.243Z,100
2023-03-30T01:29:36.493Z,100
2023-03-30T01:34:37.897Z,100
2023-03-30T01:39:39.215Z,100
2023-03-30T01:44:40.479Z,100
2023-03-30T01:49:41.769Z,100
2023-03-30T01:54:43.053Z,100
2023-03-30T01:59:44.486Z,100
2023-03-30T02:04:45.901Z,100
2023-03-30T02:09:47.289Z,100
2023-03-30T02:14:48.737Z,100
2023-03-30T02:19:50.799Z,100
2023-03-30T02:24:52.210Z,100
2023-03-30T02:29:53.481Z,100
2023-03-30T02:34:55.077Z,100
2023-03-30T02:39:56.573Z,100
2023-03-30T02:44:57.854Z,100
2023-03-30T02:49:59.363Z,100
2023-03-30T02:55:00.827Z,100
2023-03-30T03:00:02.321Z,100
2023-03-30T03:05:03.948Z,100
2023-03-30T03:10:05.351Z,100
2023-03-30T03:15:06.818Z,100
2023-03-30T03:20:08.273Z,100
2023-03-30T03:25:09.756Z,100
2023-03-30T03:30:11.030Z,100
2023-03-30T03:35:12.535Z,100
2023-03-30T03:40:13.993Z,100
2023-03-30T03:45:15.389Z,100
2023-03-30T03:50:16.881Z,100
2023-03-30T03:55:18.372Z,100
2023-03-30T04:00:19.833Z,100
2023-03-30T04:05:21.244Z,100
2023-03-30T04:10:22.767Z,100
2023-03-30T04:15:24.133Z,100
2023-03-30T04:20:25.472Z,100
2023-03-30T04:25:26.947Z,100
2023-03-30T04:30:28.413Z,100
2023-03-30T04:35:29.782Z,100
2023-03-30T04:40:31.043Z,100
2023-03-30T04:45:32.481Z,100
2023-03-30T04:50:34.144Z,100
2023-03-30T04:55:35.394Z,100
2023-03-30T05:00:36.683Z,100
2023-03-30T05:05:37.991Z,100
2023-03-30T05:10:39.342Z,100
2023-03-30T05:15:40.590Z,100
2023-03-30T05:20:44.433Z,100
2023-03-30T05:25:45.825Z,100
2023-03-30T05:30:47.118Z,100
2023-03-30T05:35:48.551Z,100
2023-03-30T05:40:49.862Z,100
2023-03-30T05:45:51.190Z,100
2023-03-30T05:50:52.863Z,100
2023-03-30T05:55:54.096Z,99.23202
2023-03-30T06:00:55.438Z,94.42268
2023-03-30T06:05:56.769Z,93.31403
2023-03-30T06:10:58.073Z,93.67678
2023-03-30T06:16:01.505Z,88.42881
2023-03-30T06:21:04.777Z,85.59207
2023-03-30T06:26:06.599Z,83.29391
2023-03-30T06:31:08.013Z,89.29001
2023-03-30T06:36:09.333Z,84.48348
2023-03-30T06:41:10.922Z,85.61193
2023-03-30T06:46:12.252Z,87.06551
2023-03-30T06:51:13.793Z,82.55213
2023-03-30T06:56:15.072Z,81.14115
2023-03-30T07:01:16.415Z,79.48932
2023-03-30T07:06:20.450Z,76.89343
2023-03-30T07:11:22.469Z,79.01642
2023-03-30T07:16:23.960Z,75.76839
2023-03-30T07:21:25.678Z,76.33055
2023-03-30T07:26:26.972Z,75.44355
2023-03-30T07:31:28.537Z,75.00232
2023-03-30T07:36:29.984Z,75.57127
2023-03-30T07:41:31.437Z,75.09453
2023-03-30T07:46:32.842Z,70.85316
2023-03-30T07:51:34.190Z,70.68991
2023-03-30T07:56:35.486Z,70.92762
2023-03-30T08:01:36.861Z,74.15291
2023-03-30T08:06:38.287Z,66.48616
2023-03-30T08:11:39.560Z,68.67086
2023-03-30T08:16:41.030Z,68.45348
2023-03-30T08:21:42.648Z,62.91018
2023-03-30T08:26:43.940Z,67.7943
2023-03-30T08:31:45.250Z,64.66448
2023-03-30T08:36:46.728Z,62.57351
2023-03-30T08:41:48.007Z,57.81344
2023-03-30T08:46:49.466Z,61.78079
2023-03-30T08:51:50.876Z,58.79802
2023-03-30T08:56:52.529Z,58.78498
2023-03-30T09:01:54.029Z,61.52983
2023-03-30T09:06:55.323Z,62.18189
2023-03-30T09:11:56.608Z,52.81833
2023-03-30T09:16:57.959Z,38.88923
2023-03-30T09:21:59.607Z,41.31347
2023-03-30T09:27:01.076Z,38.04017
2023-03-30T09:32:02.769Z,32.56609
2023-03-30T09:37:04.234Z,35.92433
2023-03-30T09:42:05.530Z,36.33132
2023-03-30T09:47:06.822Z,36.3794
2023-03-30T09:52:08.147Z,38.63626
2023-03-30T09:57:09.529Z,39.31231
2023-03-30T10:02:11.324Z,37.25161
2023-03-30T10:07:18.612Z,39.15832
2023-03-30T10:12:20.394Z,39.83424
2023-03-30T10:17:21.643Z,40.03106
2023-03-30T10:22:23.057Z,39.51307
2023-03-30T10:27:24.451Z,40.02694
2023-03-30T10:32:25.809Z,39.00152
2023-03-30T10:37:27.411Z,37.14578
2023-03-30T10:42:28.815Z,36.4302
2023-03-30T10:47:30.369Z,34.61649
2023-03-30T10:52:31.981Z,32.72235
2023-03-30T10:57:33.343Z,32.11307
2023-03-30T11:02:34.906Z,32.97843
2023-03-30T11:07:36.411Z,33.4752
2023-03-30T11:12:37.794Z,31.87151
2023-03-30T11:17:39.101Z,32.25472
2023-03-30T11:22:40.758Z,32.18725
2023-03-30T11:27:42.185Z,29.62721
2023-03-30T11:32:43.549Z,31.26418
2023-03-30T11:37:44.977Z,31.50437
2023-03-30T11:42:46.469Z,31.92414
2023-03-30T11:47:48.562Z,32.99399
2023-03-30T11:52:50.217Z,33.32918
2023-03-30T11:57:51.703Z,31.31322
2023-03-30T12:02:53.213Z,31.74823
2023-03-30T12:07:54.802Z,34.03223
2023-03-30T12:12:56.090Z,31.94077
2023-03-30T12:17:57.428Z,33.14835
2023-03-30T12:22:58.891Z,31.58392
2023-03-30T12:28:00.477Z,30.68052
2023-03-30T12:33:01.862Z,29.19728
2023-03-30T12:38:03.440Z,27.83027
2023-03-30T12:43:04.904Z,27.89207
2023-03-30T12:48:06.508Z,27.5564
2023-03-30T12:53:08.335Z,27.81457
2023-03-30T12:58:09.592Z,28.23318
2023-03-30T13:03:10.944Z,26.40668
2023-03-30T13:08:12.386Z,27.538
2023-03-30T13:13:13.646Z,25.18161
2023-03-30T13:18:14.929Z,24.30478
2023-03-30T13:23:16.240Z,24.52216
2023-03-30T13:28:17.739Z,23.58084
2023-03-30T13:33:19.020Z,25.21749
2023-03-30T13:38:20.535Z,41.4843
2023-03-30T13:43:21.968Z,44.69677
2023-03-30T13:48:23.539Z,45.30488
2023-03-30T13:53:25.058Z,43.35384
2023-03-30T13:58:26.351Z,43.71176
2023-03-30T14:03:27.722Z,44.83758
2023-03-30T14:08:29.160Z,43.8179
2023-03-30T14:13:30.499Z,45.92568
2023-03-30T14:18:31.878Z,45.75635
2023-03-30T14:23:33.388Z,45.09614
2023-03-30T14:28:34.679Z,45.73772
2023-03-30T14:33:35.944Z,45.06398
2023-03-30T14:38:37.378Z,45.09459
2023-03-30T14:43:39.507Z,43.1814
2023-03-30T14:48:41.246Z,43.24882
2023-03-30T14:53:42.865Z,43.95283
2023-03-30T14:58:44.248Z,40.36633
2023-03-30T15:03:45.588Z,37.67011
2023-03-30T15:08:47.235Z,39.80245
2023-03-30T15:13:48.512Z,44.48825
2023-03-30T15:18:49.948Z,44.96681
2023-03-30T15:23:51.494Z,43.07735
2023-03-30T15:28:52.897Z,43.22691
2023-03-30T15:33:54.215Z,43.24998
2023-03-30T15:38:55.687Z,44.01007
2023-03-30T15:43:57.275Z,45.59188
2023-03-30T15:48:59.042Z,45.19455
2023-03-30T15:54:00.363Z,47.46526
2023-03-30T15:59:01.774Z,49.93652
2023-03-30T16:04:03.264Z,50.21788
2023-03-30T16:09:04.574Z,51.55682
2023-03-30T16:14:05.910Z,52.71286
2023-03-30T16:19:07.155Z,53.1199
2023-03-30T16:24:08.896Z,54.54983
2023-03-30T16:29:10.130Z,54.36494
2023-03-30T16:34:11.382Z,57.28939
2023-03-30T16:39:12.989Z,56.66251
2023-03-30T16:44:14.260Z,59.03632
2023-03-30T16:49:15.674Z,57.77712
2023-03-30T16:54:29.443Z,59.37649
2023-03-30T16:59:32.181Z,57.39142
2023-03-30T17:04:33.556Z,56.3029
2023-03-30T17:09:34.917Z,46.59066
2023-03-30T17:14:36.178Z,42.22994
2023-03-30T17:19:37.472Z,40.10207
2023-03-30T17:24:39.042Z,39.08494
2023-03-30T17:29:40.309Z,36.31046
2023-03-30T17:34:41.664Z,33.2099
2023-03-30T17:39:42.941Z,33.49812
2023-03-30T17:44:44.410Z,33.61323
2023-03-30T17:49:45.758Z,34.98382
2023-03-30T17:54:47.283Z,36.98392
2023-03-30T17:59:48.628Z,36.14213
2023-03-30T18:04:49.878Z,41.99852
2023-03-30T18:09:51.228Z,39.22181
2023-03-30T18:14:52.552Z,44.28157
2023-03-30T18:19:53.863Z,45.61425
2023-03-30T18:24:55.486Z,46.66309
2023-03-30T18:29:56.889Z,47.45669
2023-03-30T18:34:58.178Z,49.69632
2023-03-30T18:39:59.737Z,50.56698
2023-03-30T18:45:01.041Z,53.24587
2023-03-30T18:50:02.393Z,52.87723
2023-03-30T18:55:04.016Z,54.83819
2023-03-30T19:00:05.266Z,55.87561
2023-03-30T19:05:06.987Z,57.42234
2023-03-30T19:10:08.397Z,58.27695
2023-03-30T19:15:09.709Z,58.14144
2023-03-30T19:20:11.090Z,57.00563
2023-03-30T19:25:12.924Z,56.69305
2023-03-30T19:30:14.285Z,57.24746
2023-03-30T19:35:15.515Z,55.64822
2023-03-30T19:40:16.969Z,55.067
2023-03-30T19:45:18.440Z,54.45616
2023-03-30T19:50:19.825Z,51.15703
2023-03-30T19:55:21.129Z,52.58414
2023-03-30T20:00:22.584Z,52.96856
2023-03-30T20:05:23.957Z,53.80848
2023-03-30T20:10:25.327Z,56.56768
2023-03-30T20:15:27.000Z,59.0893
2023-03-30T20:20:28.275Z,57.60107
2023-03-30T20:25:29.665Z,57.49397
2023-03-30T20:30:31.400Z,58.42675
2023-03-30T20:35:32.664Z,61.26076
2023-03-30T20:40:34.187Z,66.63938
2023-03-30T20:45:35.557Z,67.51236
2023-03-30T20:50:36.837Z,72.52496
2023-03-30T20:55:38.227Z,75.34988
2023-03-30T21:00:39.588Z,74.53543
2023-03-30T21:05:40.886Z,74.93508
2023-03-30T21:10:42.322Z,77.62505
2023-03-30T21:15:43.633Z,79.89219
2023-03-30T21:20:44.984Z,82.36681
2023-03-30T21:25:46.242Z,88.96511
2023-03-30T21:30:47.497Z,86.22046
2023-03-30T21:35:48.901Z,84.39917
2023-03-30T21:40:50.456Z,88.69317
2023-03-30T21:45:51.858Z,85.26826
2023-03-30T21:50:53.091Z,88.32465
2023-03-30T21:55:54.494Z,93.95403
2023-03-30T22:01:10.682Z,87.96284
2023-03-30T22:06:12.823Z,88.37052
2023-03-30T22:11:14.100Z,82.6229
2023-03-30T22:16:15.407Z,83.5028
2023-03-30T22:21:16.797Z,81.01214
2023-03-30T22:26:18.279Z,79.51946
2023-03-30T22:31:19.565Z,79.52002
2023-03-30T22:36:20.879Z,88.56364
2023-03-30T22:41:22.189Z,84.61746
2023-03-30T22:46:23.527Z,80.46491
2023-03-30T22:51:24.954Z,75.52466
2023-03-30T22:56:26.403Z,78.62995
2023-03-30T23:01:27.835Z,83.3092
2023-03-30T23:06:29.134Z,86.6539
2023-03-30T23:11:30.491Z,89.92839
2023-03-30T23:16:32.000Z,91.35863
2023-03-30T23:21:33.316Z,90.91286
2023-03-30T23:26:34.861Z,100
2023-03-30T23:31:36.641Z,100
2023-03-30T23:36:38.017Z,100
2023-03-30T23:41:39.513Z,100
2023-03-30T23:46:40.848Z,100
2023-03-30T23:51:42.443Z,100
2023-03-30T23:56:43.987Z,100
